sensor_id;sensor_type;location;lat;lon;timestamp;P1;durP1;ratioP1;P2;durP2;ratioP2
36351;SDS011;22382;44.768;17.206;2023-06-22T00:01:19;17.52;;;12.23;;
36351;SDS011;22382;44.768;17.206;2023-06-22T00:03:47;15.13;;;11.77;;
36351;SDS011;22382;44.768;17.206;2023-06-22T00:06:15;16.52;;;11.98;;
36351;SDS011;22382;44.768;17.206;2023-06-22T00:08:42;18.23;;;12.77;;
36351;SDS011;22382;44.768;17.206;2023-06-22T00:11:10;15.95;;;12.93;;
36351;SDS011;22382;44.768;17.206;2023-06-22T00:13:37;16.42;;;12.20;;
36351;SDS011;22382;44.768;17.206;2023-06-22T00:16:05;14.63;;;12.35;;
36351;SDS011;22382;44.768;17.206;2023-06-22T00:18:32;17.83;;;12.60;;
36351;SDS011;22382;44.768;17.206;2023-06-22T00:20:59;16.60;;;12.38;;
36351;SDS011;22382;44.768;17.206;2023-06-22T00:23:27;13.05;;;11.52;;
36351;SDS011;22382;44.768;17.206;2023-06-22T00:25:54;19.85;;;11.93;;
36351;SDS011;22382;44.768;17.206;2023-06-22T00:28:21;15.57;;;11.85;;
36351;SDS011;22382;44.768;17.206;2023-06-22T00:30:49;17.55;;;12.05;;
36351;SDS011;22382;44.768;17.206;2023-06-22T00:33:16;14.75;;;11.77;;
36351;SDS011;22382;44.768;17.206;2023-06-22T00:35:43;15.35;;;11.40;;
36351;SDS011;22382;44.768;17.206;2023-06-22T00:38:11;14.88;;;11.45;;
36351;SDS011;22382;44.768;17.206;2023-06-22T00:40:38;14.65;;;11.95;;
36351;SDS011;22382;44.768;17.206;2023-06-22T00:43:06;17.70;;;11.77;;
36351;SDS011;22382;44.768;17.206;2023-06-22T00:45:33;16.55;;;10.90;;
36351;SDS011;22382;44.768;17.206;2023-06-22T00:48:01;17.08;;;11.63;;
36351;SDS011;22382;44.768;17.206;2023-06-22T00:50:30;13.07;;;10.98;;
36351;SDS011;22382;44.768;17.206;2023-06-22T00:53:05;14.63;;;10.68;;
36351;SDS011;22382;44.768;17.206;2023-06-22T00:55:37;14.70;;;10.00;;
36351;SDS011;22382;44.768;17.206;2023-06-22T00:58:10;18.45;;;11.02;;
36351;SDS011;22382;44.768;17.206;2023-06-22T01:00:41;19.73;;;11.25;;
36351;SDS011;22382;44.768;17.206;2023-06-22T01:03:09;16.75;;;10.77;;
36351;SDS011;22382;44.768;17.206;2023-06-22T01:05:37;16.40;;;10.95;;
36351;SDS011;22382;44.768;17.206;2023-06-22T01:11:08;16.38;;;10.60;;
36351;SDS011;22382;44.768;17.206;2023-06-22T01:16:14;13.38;;;10.38;;
36351;SDS011;22382;44.768;17.206;2023-06-22T01:18:52;14.07;;;10.48;;
36351;SDS011;22382;44.768;17.206;2023-06-22T01:21:24;15.20;;;10.20;;
36351;SDS011;22382;44.768;17.206;2023-06-22T01:24:15;18.33;;;11.32;;
36351;SDS011;22382;44.768;17.206;2023-06-22T01:29:55;12.45;;;10.05;;
36351;SDS011;22382;44.768;17.206;2023-06-22T01:32:30;12.05;;;9.68;;
36351;SDS011;22382;44.768;17.206;2023-06-22T01:35:01;17.05;;;9.40;;
36351;SDS011;22382;44.768;17.206;2023-06-22T01:37:32;19.52;;;10.95;;
36351;SDS011;22382;44.768;17.206;2023-06-22T01:40:01;15.40;;;11.05;;
36351;SDS011;22382;44.768;17.206;2023-06-22T01:42:30;18.15;;;11.00;;
36351;SDS011;22382;44.768;17.206;2023-06-22T01:44:59;17.33;;;10.82;;
36351;SDS011;22382;44.768;17.206;2023-06-22T01:47:27;12.25;;;9.80;;
36351;SDS011;22382;44.768;17.206;2023-06-22T01:49:55;13.38;;;10.27;;
36351;SDS011;22382;44.768;17.206;2023-06-22T01:52:23;17.17;;;11.07;;
36351;SDS011;22382;44.768;17.206;2023-06-22T01:54:50;15.32;;;10.75;;
36351;SDS011;22382;44.768;17.206;2023-06-22T01:57:17;15.63;;;10.93;;
36351;SDS011;22382;44.768;17.206;2023-06-22T01:59:49;17.13;;;11.55;;
36351;SDS011;22382;44.768;17.206;2023-06-22T02:02:32;13.23;;;10.38;;
36351;SDS011;22382;44.768;17.206;2023-06-22T02:05:06;14.43;;;11.23;;
36351;SDS011;22382;44.768;17.206;2023-06-22T02:07:44;18.42;;;11.55;;
36351;SDS011;22382;44.768;17.206;2023-06-22T02:10:19;15.15;;;11.23;;
36351;SDS011;22382;44.768;17.206;2023-06-22T02:12:48;15.23;;;10.65;;
36351;SDS011;22382;44.768;17.206;2023-06-22T02:15:17;14.40;;;11.32;;
36351;SDS011;22382;44.768;17.206;2023-06-22T02:17:45;16.70;;;11.35;;
36351;SDS011;22382;44.768;17.206;2023-06-22T02:20:15;15.18;;;10.75;;
36351;SDS011;22382;44.768;17.206;2023-06-22T02:22:42;17.33;;;11.00;;
36351;SDS011;22382;44.768;17.206;2023-06-22T02:25:09;11.95;;;10.25;;
36351;SDS011;22382;44.768;17.206;2023-06-22T02:27:37;15.43;;;10.88;;
36351;SDS011;22382;44.768;17.206;2023-06-22T02:30:07;14.50;;;10.48;;
36351;SDS011;22382;44.768;17.206;2023-06-22T02:32:35;14.27;;;11.05;;
36351;SDS011;22382;44.768;17.206;2023-06-22T02:35:03;16.15;;;11.00;;
36351;SDS011;22382;44.768;17.206;2023-06-22T02:37:31;17.20;;;11.18;;
36351;SDS011;22382;44.768;17.206;2023-06-22T02:39:58;16.45;;;11.68;;
36351;SDS011;22382;44.768;17.206;2023-06-22T02:42:26;15.15;;;11.15;;
36351;SDS011;22382;44.768;17.206;2023-06-22T02:44:53;13.48;;;10.95;;
36351;SDS011;22382;44.768;17.206;2023-06-22T02:47:20;15.00;;;10.63;;
36351;SDS011;22382;44.768;17.206;2023-06-22T02:49:47;13.45;;;10.18;;
36351;SDS011;22382;44.768;17.206;2023-06-22T02:52:15;14.93;;;10.25;;
36351;SDS011;22382;44.768;17.206;2023-06-22T02:54:42;14.65;;;10.88;;
36351;SDS011;22382;44.768;17.206;2023-06-22T02:57:11;12.88;;;10.18;;
36351;SDS011;22382;44.768;17.206;2023-06-22T02:59:40;14.55;;;10.90;;
36351;SDS011;22382;44.768;17.206;2023-06-22T03:02:08;16.95;;;10.88;;
36351;SDS011;22382;44.768;17.206;2023-06-22T03:04:36;16.13;;;10.50;;
36351;SDS011;22382;44.768;17.206;2023-06-22T03:07:03;13.10;;;10.40;;
36351;SDS011;22382;44.768;17.206;2023-06-22T03:09:32;12.80;;;10.25;;
36351;SDS011;22382;44.768;17.206;2023-06-22T03:11:59;15.63;;;11.23;;
36351;SDS011;22382;44.768;17.206;2023-06-22T03:14:28;13.38;;;10.63;;
36351;SDS011;22382;44.768;17.206;2023-06-22T03:16:55;16.73;;;10.77;;
36351;SDS011;22382;44.768;17.206;2023-06-22T03:19:28;14.65;;;10.63;;
36351;SDS011;22382;44.768;17.206;2023-06-22T03:21:59;16.38;;;10.48;;
36351;SDS011;22382;44.768;17.206;2023-06-22T03:24:26;16.75;;;10.80;;
36351;SDS011;22382;44.768;17.206;2023-06-22T03:26:56;14.70;;;10.52;;
36351;SDS011;22382;44.768;17.206;2023-06-22T03:29:23;15.43;;;10.82;;
36351;SDS011;22382;44.768;17.206;2023-06-22T03:31:54;14.43;;;10.47;;
36351;SDS011;22382;44.768;17.206;2023-06-22T03:34:22;11.73;;;9.98;;
36351;SDS011;22382;44.768;17.206;2023-06-22T03:36:49;13.55;;;10.15;;
36351;SDS011;22382;44.768;17.206;2023-06-22T03:39:16;16.27;;;10.65;;
36351;SDS011;22382;44.768;17.206;2023-06-22T03:41:43;16.33;;;11.35;;
36351;SDS011;22382;44.768;17.206;2023-06-22T03:44:11;15.35;;;10.27;;
36351;SDS011;22382;44.768;17.206;2023-06-22T03:46:38;12.10;;;10.65;;
36351;SDS011;22382;44.768;17.206;2023-06-22T03:49:06;16.17;;;10.95;;
36351;SDS011;22382;44.768;17.206;2023-06-22T03:51:33;15.77;;;11.30;;
36351;SDS011;22382;44.768;17.206;2023-06-22T03:54:00;11.98;;;10.32;;
36351;SDS011;22382;44.768;17.206;2023-06-22T03:56:28;17.02;;;10.80;;
36351;SDS011;22382;44.768;17.206;2023-06-22T03:58:55;16.38;;;10.32;;
36351;SDS011;22382;44.768;17.206;2023-06-22T04:01:22;14.18;;;10.15;;
36351;SDS011;22382;44.768;17.206;2023-06-22T04:03:50;16.85;;;11.13;;
36351;SDS011;22382;44.768;17.206;2023-06-22T04:06:17;10.98;;;9.60;;
36351;SDS011;22382;44.768;17.206;2023-06-22T04:08:45;13.77;;;9.65;;
36351;SDS011;22382;44.768;17.206;2023-06-22T04:11:17;15.27;;;10.80;;
36351;SDS011;22382;44.768;17.206;2023-06-22T04:13:45;11.88;;;9.98;;
36351;SDS011;22382;44.768;17.206;2023-06-22T04:16:12;15.02;;;9.95;;
36351;SDS011;22382;44.768;17.206;2023-06-22T04:18:39;14.70;;;9.73;;
36351;SDS011;22382;44.768;17.206;2023-06-22T04:21:08;15.13;;;9.95;;
36351;SDS011;22382;44.768;17.206;2023-06-22T04:23:36;13.88;;;9.65;;
36351;SDS011;22382;44.768;17.206;2023-06-22T04:26:03;13.02;;;9.95;;
36351;SDS011;22382;44.768;17.206;2023-06-22T04:28:31;16.35;;;9.57;;
36351;SDS011;22382;44.768;17.206;2023-06-22T04:31:01;13.77;;;9.32;;
36351;SDS011;22382;44.768;17.206;2023-06-22T04:33:29;11.93;;;9.65;;
36351;SDS011;22382;44.768;17.206;2023-06-22T04:35:57;13.70;;;8.95;;
36351;SDS011;22382;44.768;17.206;2023-06-22T04:38:24;11.77;;;8.75;;
36351;SDS011;22382;44.768;17.206;2023-06-22T04:40:52;14.23;;;9.27;;
36351;SDS011;22382;44.768;17.206;2023-06-22T04:43:20;13.18;;;8.55;;
36351;SDS011;22382;44.768;17.206;2023-06-22T04:45:47;14.57;;;8.65;;
36351;SDS011;22382;44.768;17.206;2023-06-22T04:48:19;13.40;;;9.25;;
36351;SDS011;22382;44.768;17.206;2023-06-22T04:50:46;12.57;;;8.30;;
36351;SDS011;22382;44.768;17.206;2023-06-22T04:53:13;10.10;;;7.95;;
36351;SDS011;22382;44.768;17.206;2023-06-22T04:55:40;15.80;;;8.90;;
36351;SDS011;22382;44.768;17.206;2023-06-22T04:58:12;11.40;;;8.15;;
36351;SDS011;22382;44.768;17.206;2023-06-22T05:00:39;10.70;;;8.10;;
36351;SDS011;22382;44.768;17.206;2023-06-22T05:03:06;12.05;;;8.10;;
36351;SDS011;22382;44.768;17.206;2023-06-22T05:05:45;14.30;;;9.02;;
36351;SDS011;22382;44.768;17.206;2023-06-22T05:08:13;11.88;;;8.27;;
36351;SDS011;22382;44.768;17.206;2023-06-22T05:10:40;13.27;;;8.10;;
36351;SDS011;22382;44.768;17.206;2023-06-22T05:13:27;12.77;;;8.25;;
36351;SDS011;22382;44.768;17.206;2023-06-22T05:15:54;12.77;;;8.30;;
36351;SDS011;22382;44.768;17.206;2023-06-22T05:18:28;13.40;;;8.65;;
36351;SDS011;22382;44.768;17.206;2023-06-22T05:20:56;14.93;;;9.27;;
36351;SDS011;22382;44.768;17.206;2023-06-22T05:23:24;12.20;;;8.10;;
36351;SDS011;22382;44.768;17.206;2023-06-22T05:25:52;10.82;;;7.97;;
36351;SDS011;22382;44.768;17.206;2023-06-22T05:28:21;10.73;;;8.30;;
36351;SDS011;22382;44.768;17.206;2023-06-22T05:30:49;10.43;;;7.75;;
36351;SDS011;22382;44.768;17.206;2023-06-22T05:33:17;9.40;;;8.18;;
36351;SDS011;22382;44.768;17.206;2023-06-22T05:35:44;12.93;;;8.65;;
36351;SDS011;22382;44.768;17.206;2023-06-22T05:38:11;13.00;;;8.30;;
36351;SDS011;22382;44.768;17.206;2023-06-22T05:40:39;13.55;;;8.63;;
36351;SDS011;22382;44.768;17.206;2023-06-22T05:43:06;16.05;;;9.18;;
36351;SDS011;22382;44.768;17.206;2023-06-22T05:45:33;12.48;;;8.68;;
36351;SDS011;22382;44.768;17.206;2023-06-22T05:48:00;14.18;;;7.97;;
36351;SDS011;22382;44.768;17.206;2023-06-22T05:50:28;14.88;;;7.82;;
36351;SDS011;22382;44.768;17.206;2023-06-22T05:52:55;16.00;;;8.43;;
36351;SDS011;22382;44.768;17.206;2023-06-22T05:55:23;14.60;;;8.50;;
36351;SDS011;22382;44.768;17.206;2023-06-22T05:57:50;9.85;;;7.88;;
36351;SDS011;22382;44.768;17.206;2023-06-22T06:00:17;11.75;;;7.78;;
36351;SDS011;22382;44.768;17.206;2023-06-22T06:02:45;13.00;;;8.45;;
36351;SDS011;22382;44.768;17.206;2023-06-22T06:05:12;12.95;;;7.80;;
36351;SDS011;22382;44.768;17.206;2023-06-22T06:07:41;13.80;;;8.27;;
36351;SDS011;22382;44.768;17.206;2023-06-22T06:10:09;13.15;;;7.65;;
36351;SDS011;22382;44.768;17.206;2023-06-22T06:12:36;11.73;;;7.55;;
36351;SDS011;22382;44.768;17.206;2023-06-22T06:15:04;13.75;;;8.70;;
36351;SDS011;22382;44.768;17.206;2023-06-22T06:17:35;12.82;;;8.00;;
36351;SDS011;22382;44.768;17.206;2023-06-22T06:20:11;11.80;;;7.70;;
36351;SDS011;22382;44.768;17.206;2023-06-22T06:22:38;13.18;;;8.40;;
36351;SDS011;22382;44.768;17.206;2023-06-22T06:25:06;13.05;;;7.40;;
36351;SDS011;22382;44.768;17.206;2023-06-22T06:27:33;12.07;;;7.68;;
36351;SDS011;22382;44.768;17.206;2023-06-22T06:30:01;11.73;;;8.07;;
36351;SDS011;22382;44.768;17.206;2023-06-22T06:32:28;12.77;;;8.23;;
36351;SDS011;22382;44.768;17.206;2023-06-22T06:34:55;17.08;;;9.38;;
36351;SDS011;22382;44.768;17.206;2023-06-22T06:37:22;11.65;;;8.10;;
36351;SDS011;22382;44.768;17.206;2023-06-22T06:39:50;11.00;;;7.90;;
36351;SDS011;22382;44.768;17.206;2023-06-22T06:42:17;12.63;;;8.10;;
36351;SDS011;22382;44.768;17.206;2023-06-22T06:44:45;13.38;;;7.88;;
36351;SDS011;22382;44.768;17.206;2023-06-22T06:47:13;15.27;;;8.82;;
36351;SDS011;22382;44.768;17.206;2023-06-22T06:49:40;14.88;;;8.18;;
36351;SDS011;22382;44.768;17.206;2023-06-22T06:52:07;12.50;;;8.73;;
36351;SDS011;22382;44.768;17.206;2023-06-22T06:54:35;13.98;;;7.95;;
36351;SDS011;22382;44.768;17.206;2023-06-22T06:57:02;12.77;;;8.60;;
36351;SDS011;22382;44.768;17.206;2023-06-22T06:59:30;15.93;;;8.98;;
36351;SDS011;22382;44.768;17.206;2023-06-22T07:01:57;14.52;;;8.38;;
36351;SDS011;22382;44.768;17.206;2023-06-22T07:04:24;14.20;;;8.57;;
36351;SDS011;22382;44.768;17.206;2023-06-22T07:06:52;16.42;;;8.77;;
36351;SDS011;22382;44.768;17.206;2023-06-22T07:09:19;17.60;;;9.45;;
36351;SDS011;22382;44.768;17.206;2023-06-22T07:11:46;14.02;;;8.98;;
36351;SDS011;22382;44.768;17.206;2023-06-22T07:14:14;13.02;;;7.95;;
36351;SDS011;22382;44.768;17.206;2023-06-22T07:16:41;16.23;;;8.70;;
36351;SDS011;22382;44.768;17.206;2023-06-22T07:19:10;13.23;;;8.30;;
36351;SDS011;22382;44.768;17.206;2023-06-22T07:21:38;12.90;;;8.50;;
36351;SDS011;22382;44.768;17.206;2023-06-22T07:24:09;14.70;;;8.85;;
36351;SDS011;22382;44.768;17.206;2023-06-22T07:26:36;13.02;;;8.75;;
36351;SDS011;22382;44.768;17.206;2023-06-22T07:29:04;14.77;;;8.60;;
36351;SDS011;22382;44.768;17.206;2023-06-22T07:31:31;14.02;;;8.85;;
36351;SDS011;22382;44.768;17.206;2023-06-22T07:33:58;13.73;;;8.57;;
36351;SDS011;22382;44.768;17.206;2023-06-22T07:36:25;12.23;;;8.05;;
36351;SDS011;22382;44.768;17.206;2023-06-22T07:38:52;14.90;;;8.13;;
36351;SDS011;22382;44.768;17.206;2023-06-22T07:41:20;14.07;;;8.38;;
36351;SDS011;22382;44.768;17.206;2023-06-22T07:43:47;12.35;;;8.13;;
36351;SDS011;22382;44.768;17.206;2023-06-22T07:46:15;11.98;;;8.40;;
36351;SDS011;22382;44.768;17.206;2023-06-22T07:48:43;13.25;;;8.48;;
36351;SDS011;22382;44.768;17.206;2023-06-22T07:51:10;14.48;;;8.85;;
36351;SDS011;22382;44.768;17.206;2023-06-22T07:53:41;16.83;;;8.13;;
36351;SDS011;22382;44.768;17.206;2023-06-22T07:56:12;11.10;;;8.10;;
36351;SDS011;22382;44.768;17.206;2023-06-22T07:58:40;12.10;;;8.17;;
36351;SDS011;22382;44.768;17.206;2023-06-22T08:01:07;15.88;;;9.02;;
36351;SDS011;22382;44.768;17.206;2023-06-22T08:03:36;15.05;;;8.27;;
36351;SDS011;22382;44.768;17.206;2023-06-22T08:06:03;15.88;;;8.50;;
36351;SDS011;22382;44.768;17.206;2023-06-22T08:08:30;11.85;;;7.93;;
36351;SDS011;22382;44.768;17.206;2023-06-22T08:10:58;13.93;;;8.15;;
36351;SDS011;22382;44.768;17.206;2023-06-22T08:13:25;11.55;;;7.35;;
36351;SDS011;22382;44.768;17.206;2023-06-22T08:15:52;16.60;;;8.00;;
36351;SDS011;22382;44.768;17.206;2023-06-22T08:18:20;11.30;;;7.97;;
36351;SDS011;22382;44.768;17.206;2023-06-22T08:20:47;15.13;;;8.45;;
36351;SDS011;22382;44.768;17.206;2023-06-22T08:23:15;15.73;;;7.85;;
36351;SDS011;22382;44.768;17.206;2023-06-22T08:25:43;12.93;;;7.03;;
36351;SDS011;22382;44.768;17.206;2023-06-22T08:28:11;13.77;;;7.32;;
36351;SDS011;22382;44.768;17.206;2023-06-22T08:30:39;11.07;;;6.97;;
36351;SDS011;22382;44.768;17.206;2023-06-22T08:33:06;20.70;;;8.00;;
36351;SDS011;22382;44.768;17.206;2023-06-22T08:35:34;13.50;;;7.10;;
36351;SDS011;22382;44.768;17.206;2023-06-22T08:38:01;11.10;;;6.90;;
36351;SDS011;22382;44.768;17.206;2023-06-22T08:40:29;11.95;;;7.07;;
36351;SDS011;22382;44.768;17.206;2023-06-22T08:42:56;20.42;;;6.75;;
36351;SDS011;22382;44.768;17.206;2023-06-22T08:45:23;15.88;;;8.05;;
36351;SDS011;22382;44.768;17.206;2023-06-22T08:47:53;14.13;;;7.47;;
36351;SDS011;22382;44.768;17.206;2023-06-22T08:50:21;13.93;;;7.13;;
36351;SDS011;22382;44.768;17.206;2023-06-22T08:52:48;13.00;;;6.72;;
36351;SDS011;22382;44.768;17.206;2023-06-22T08:55:15;16.15;;;8.20;;
36351;SDS011;22382;44.768;17.206;2023-06-22T08:57:42;11.73;;;7.40;;
36351;SDS011;22382;44.768;17.206;2023-06-22T09:00:10;19.92;;;7.97;;
36351;SDS011;22382;44.768;17.206;2023-06-22T09:02:43;13.35;;;7.95;;
36351;SDS011;22382;44.768;17.206;2023-06-22T09:05:11;12.70;;;6.80;;
36351;SDS011;22382;44.768;17.206;2023-06-22T09:07:39;11.95;;;6.82;;
36351;SDS011;22382;44.768;17.206;2023-06-22T09:10:07;11.90;;;7.25;;
36351;SDS011;22382;44.768;17.206;2023-06-22T09:12:34;13.05;;;7.90;;
36351;SDS011;22382;44.768;17.206;2023-06-22T09:15:04;13.60;;;8.07;;
36351;SDS011;22382;44.768;17.206;2023-06-22T09:17:37;11.65;;;6.40;;
36351;SDS011;22382;44.768;17.206;2023-06-22T09:20:05;12.10;;;7.07;;
36351;SDS011;22382;44.768;17.206;2023-06-22T09:22:34;14.00;;;6.90;;
36351;SDS011;22382;44.768;17.206;2023-06-22T09:25:01;10.90;;;7.25;;
36351;SDS011;22382;44.768;17.206;2023-06-22T09:27:33;11.63;;;6.90;;
36351;SDS011;22382;44.768;17.206;2023-06-22T09:30:00;10.88;;;7.15;;
36351;SDS011;22382;44.768;17.206;2023-06-22T09:32:27;14.43;;;7.57;;
36351;SDS011;22382;44.768;17.206;2023-06-22T09:34:54;15.60;;;7.70;;
36351;SDS011;22382;44.768;17.206;2023-06-22T09:37:22;14.90;;;7.75;;
36351;SDS011;22382;44.768;17.206;2023-06-22T09:39:49;13.25;;;6.82;;
36351;SDS011;22382;44.768;17.206;2023-06-22T09:42:16;11.88;;;7.95;;
36351;SDS011;22382;44.768;17.206;2023-06-22T09:44:44;12.60;;;7.95;;
36351;SDS011;22382;44.768;17.206;2023-06-22T09:47:11;12.00;;;7.75;;
36351;SDS011;22382;44.768;17.206;2023-06-22T09:49:38;17.95;;;8.25;;
36351;SDS011;22382;44.768;17.206;2023-06-22T09:52:13;11.35;;;7.65;;
36351;SDS011;22382;44.768;17.206;2023-06-22T09:54:41;17.55;;;8.10;;
36351;SDS011;22382;44.768;17.206;2023-06-22T09:57:08;13.80;;;7.75;;
36351;SDS011;22382;44.768;17.206;2023-06-22T09:59:35;16.70;;;8.27;;
36351;SDS011;22382;44.768;17.206;2023-06-22T10:02:02;10.32;;;7.60;;
36351;SDS011;22382;44.768;17.206;2023-06-22T10:04:30;10.68;;;7.57;;
36351;SDS011;22382;44.768;17.206;2023-06-22T10:06:58;11.98;;;7.35;;
36351;SDS011;22382;44.768;17.206;2023-06-22T10:09:25;13.55;;;7.65;;
36351;SDS011;22382;44.768;17.206;2023-06-22T10:11:52;13.45;;;7.63;;
36351;SDS011;22382;44.768;17.206;2023-06-22T10:14:19;11.82;;;8.07;;
36351;SDS011;22382;44.768;17.206;2023-06-22T10:16:48;14.00;;;8.52;;
36351;SDS011;22382;44.768;17.206;2023-06-22T10:19:15;12.48;;;7.63;;
36351;SDS011;22382;44.768;17.206;2023-06-22T10:21:42;13.25;;;7.28;;
36351;SDS011;22382;44.768;17.206;2023-06-22T10:24:09;12.73;;;7.03;;
36351;SDS011;22382;44.768;17.206;2023-06-22T10:26:36;13.68;;;7.28;;
36351;SDS011;22382;44.768;17.206;2023-06-22T10:29:04;9.52;;;7.20;;
36351;SDS011;22382;44.768;17.206;2023-06-22T10:31:34;9.57;;;7.00;;
36351;SDS011;22382;44.768;17.206;2023-06-22T10:34:01;14.50;;;7.68;;
36351;SDS011;22382;44.768;17.206;2023-06-22T10:36:28;10.77;;;6.57;;
36351;SDS011;22382;44.768;17.206;2023-06-22T10:38:56;10.68;;;7.15;;
36351;SDS011;22382;44.768;17.206;2023-06-22T10:41:25;14.23;;;8.07;;
36351;SDS011;22382;44.768;17.206;2023-06-22T10:43:56;9.85;;;6.95;;
36351;SDS011;22382;44.768;17.206;2023-06-22T10:46:24;10.48;;;7.00;;
36351;SDS011;22382;44.768;17.206;2023-06-22T10:48:52;12.65;;;7.30;;
36351;SDS011;22382;44.768;17.206;2023-06-22T10:51:21;12.23;;;7.18;;
36351;SDS011;22382;44.768;17.206;2023-06-22T10:53:49;8.65;;;6.57;;
36351;SDS011;22382;44.768;17.206;2023-06-22T10:56:17;10.68;;;6.88;;
36351;SDS011;22382;44.768;17.206;2023-06-22T10:58:45;11.60;;;7.78;;
36351;SDS011;22382;44.768;17.206;2023-06-22T11:01:13;10.48;;;7.28;;
36351;SDS011;22382;44.768;17.206;2023-06-22T11:04:00;14.00;;;8.02;;
36351;SDS011;22382;44.768;17.206;2023-06-22T11:06:28;13.20;;;7.68;;
36351;SDS011;22382;44.768;17.206;2023-06-22T11:08:55;12.80;;;7.47;;
36351;SDS011;22382;44.768;17.206;2023-06-22T11:11:37;13.25;;;7.65;;
36351;SDS011;22382;44.768;17.206;2023-06-22T11:14:05;13.15;;;7.38;;
36351;SDS011;22382;44.768;17.206;2023-06-22T11:16:32;13.45;;;7.45;;
36351;SDS011;22382;44.768;17.206;2023-06-22T11:19:01;13.40;;;7.47;;
36351;SDS011;22382;44.768;17.206;2023-06-22T11:21:29;11.20;;;7.32;;
36351;SDS011;22382;44.768;17.206;2023-06-22T11:23:58;17.77;;;7.20;;
36351;SDS011;22382;44.768;17.206;2023-06-22T11:26:28;16.10;;;7.30;;
36351;SDS011;22382;44.768;17.206;2023-06-22T11:28:56;15.60;;;7.15;;
36351;SDS011;22382;44.768;17.206;2023-06-22T11:31:23;14.35;;;8.07;;
36351;SDS011;22382;44.768;17.206;2023-06-22T11:33:52;13.10;;;7.30;;
36351;SDS011;22382;44.768;17.206;2023-06-22T11:36:19;10.75;;;7.30;;
36351;SDS011;22382;44.768;17.206;2023-06-22T11:38:47;13.13;;;7.28;;
36351;SDS011;22382;44.768;17.206;2023-06-22T11:41:14;14.43;;;8.07;;
36351;SDS011;22382;44.768;17.206;2023-06-22T11:43:41;13.57;;;7.63;;
36351;SDS011;22382;44.768;17.206;2023-06-22T11:46:08;15.02;;;7.43;;
36351;SDS011;22382;44.768;17.206;2023-06-22T11:48:36;14.85;;;7.47;;
36351;SDS011;22382;44.768;17.206;2023-06-22T11:51:04;12.57;;;7.55;;
36351;SDS011;22382;44.768;17.206;2023-06-22T11:53:33;12.30;;;8.13;;
36351;SDS011;22382;44.768;17.206;2023-06-22T11:56:01;11.38;;;7.40;;
36351;SDS011;22382;44.768;17.206;2023-06-22T11:58:28;14.55;;;7.90;;
36351;SDS011;22382;44.768;17.206;2023-06-22T12:00:55;16.83;;;8.38;;
36351;SDS011;22382;44.768;17.206;2023-06-22T12:03:23;17.80;;;9.13;;
36351;SDS011;22382;44.768;17.206;2023-06-22T12:05:50;13.68;;;7.97;;
36351;SDS011;22382;44.768;17.206;2023-06-22T12:08:21;17.10;;;8.10;;
36351;SDS011;22382;44.768;17.206;2023-06-22T12:10:49;17.35;;;8.63;;
36351;SDS011;22382;44.768;17.206;2023-06-22T12:13:17;17.52;;;8.50;;
36351;SDS011;22382;44.768;17.206;2023-06-22T12:15:44;15.15;;;7.90;;
36351;SDS011;22382;44.768;17.206;2023-06-22T12:18:11;17.05;;;7.38;;
36351;SDS011;22382;44.768;17.206;2023-06-22T12:20:40;14.15;;;7.22;;
36351;SDS011;22382;44.768;17.206;2023-06-22T12:23:08;13.02;;;7.63;;
36351;SDS011;22382;44.768;17.206;2023-06-22T12:25:35;12.63;;;8.60;;
36351;SDS011;22382;44.768;17.206;2023-06-22T12:28:02;16.75;;;8.00;;
36351;SDS011;22382;44.768;17.206;2023-06-22T12:30:32;15.52;;;7.07;;
36351;SDS011;22382;44.768;17.206;2023-06-22T12:32:59;13.82;;;7.30;;
36351;SDS011;22382;44.768;17.206;2023-06-22T12:35:27;13.18;;;7.40;;
36351;SDS011;22382;44.768;17.206;2023-06-22T12:37:54;11.75;;;6.55;;
36351;SDS011;22382;44.768;17.206;2023-06-22T12:40:21;19.95;;;7.28;;
36351;SDS011;22382;44.768;17.206;2023-06-22T12:42:49;16.45;;;7.45;;
36351;SDS011;22382;44.768;17.206;2023-06-22T12:45:16;15.73;;;7.43;;
36351;SDS011;22382;44.768;17.206;2023-06-22T12:47:44;13.15;;;6.82;;
36351;SDS011;22382;44.768;17.206;2023-06-22T12:50:11;13.65;;;6.93;;
36351;SDS011;22382;44.768;17.206;2023-06-22T12:52:39;10.32;;;6.78;;
36351;SDS011;22382;44.768;17.206;2023-06-22T12:55:07;9.93;;;7.15;;
36351;SDS011;22382;44.768;17.206;2023-06-22T12:57:35;12.82;;;7.25;;
36351;SDS011;22382;44.768;17.206;2023-06-22T13:00:02;16.33;;;6.80;;
36351;SDS011;22382;44.768;17.206;2023-06-22T13:02:31;16.23;;;7.72;;
36351;SDS011;22382;44.768;17.206;2023-06-22T13:04:59;14.48;;;7.00;;
36351;SDS011;22382;44.768;17.206;2023-06-22T13:07:26;12.63;;;7.03;;
36351;SDS011;22382;44.768;17.206;2023-06-22T13:09:53;17.95;;;8.27;;
36351;SDS011;22382;44.768;17.206;2023-06-22T13:12:20;13.50;;;7.45;;
36351;SDS011;22382;44.768;17.206;2023-06-22T13:14:48;17.20;;;7.85;;
36351;SDS011;22382;44.768;17.206;2023-06-22T13:17:15;15.48;;;7.30;;
36351;SDS011;22382;44.768;17.206;2023-06-22T13:19:43;14.27;;;7.82;;
36351;SDS011;22382;44.768;17.206;2023-06-22T13:25:09;12.75;;;7.88;;
36351;SDS011;22382;44.768;17.206;2023-06-22T13:27:42;13.70;;;8.10;;
36351;SDS011;22382;44.768;17.206;2023-06-22T13:30:09;16.53;;;8.40;;
36351;SDS011;22382;44.768;17.206;2023-06-22T13:32:40;14.23;;;8.05;;
36351;SDS011;22382;44.768;17.206;2023-06-22T13:35:09;17.10;;;8.73;;
36351;SDS011;22382;44.768;17.206;2023-06-22T13:37:37;15.00;;;8.23;;
36351;SDS011;22382;44.768;17.206;2023-06-22T13:40:05;14.95;;;8.02;;
36351;SDS011;22382;44.768;17.206;2023-06-22T13:42:34;18.20;;;8.40;;
36351;SDS011;22382;44.768;17.206;2023-06-22T13:45:02;13.55;;;8.38;;
36351;SDS011;22382;44.768;17.206;2023-06-22T13:47:30;18.02;;;9.15;;
36351;SDS011;22382;44.768;17.206;2023-06-22T13:49:58;13.85;;;7.88;;
36351;SDS011;22382;44.768;17.206;2023-06-22T13:52:25;11.35;;;7.68;;
36351;SDS011;22382;44.768;17.206;2023-06-22T13:54:53;17.55;;;8.60;;
36351;SDS011;22382;44.768;17.206;2023-06-22T13:57:20;22.45;;;8.43;;
36351;SDS011;22382;44.768;17.206;2023-06-22T13:59:47;14.73;;;7.85;;
36351;SDS011;22382;44.768;17.206;2023-06-22T14:02:15;10.38;;;7.68;;
36351;SDS011;22382;44.768;17.206;2023-06-22T14:04:42;14.98;;;8.38;;
36351;SDS011;22382;44.768;17.206;2023-06-22T14:07:10;14.10;;;7.80;;
36351;SDS011;22382;44.768;17.206;2023-06-22T14:09:38;16.58;;;8.38;;
36351;SDS011;22382;44.768;17.206;2023-06-22T14:12:06;14.27;;;7.57;;
36351;SDS011;22382;44.768;17.206;2023-06-22T14:14:34;11.60;;;7.60;;
36351;SDS011;22382;44.768;17.206;2023-06-22T14:17:01;13.00;;;8.05;;
36351;SDS011;22382;44.768;17.206;2023-06-22T14:19:28;20.98;;;8.52;;
36351;SDS011;22382;44.768;17.206;2023-06-22T14:21:56;13.82;;;7.63;;
36351;SDS011;22382;44.768;17.206;2023-06-22T14:24:24;14.55;;;8.20;;
36351;SDS011;22382;44.768;17.206;2023-06-22T14:26:54;16.25;;;8.00;;
36351;SDS011;22382;44.768;17.206;2023-06-22T14:29:22;15.13;;;7.82;;
36351;SDS011;22382;44.768;17.206;2023-06-22T14:31:49;11.57;;;7.72;;
36351;SDS011;22382;44.768;17.206;2023-06-22T14:34:17;13.43;;;7.40;;
36351;SDS011;22382;44.768;17.206;2023-06-22T14:36:44;15.40;;;8.07;;